地図

経路データ

SID SEASON NUMBER BASIN SUBBASIN NAME ISO_TIME NATURE LAT LON WMO_WIND WMO_PRES WMO_AGENCY TRACK_TYPE DIST2LAND LANDFALL IFLAG USA_AGENCY USA_ATCF_ID USA_LAT USA_LON USA_RECORD USA_STATUS USA_WIND USA_PRES USA_SSHS USA_R34_NE USA_R34_SE USA_R34_SW USA_R34_NW USA_R50_NE USA_R50_SE USA_R50_SW USA_R50_NW USA_R64_NE USA_R64_SE USA_R64_SW USA_R64_NW USA_POCI USA_ROCI USA_RMW USA_EYE TOKYO_LAT TOKYO_LON TOKYO_GRADE TOKYO_WIND TOKYO_PRES TOKYO_R50_DIR TOKYO_R50_LONG TOKYO_R50_SHORT TOKYO_R30_DIR TOKYO_R30_LONG TOKYO_R30_SHORT TOKYO_LAND CMA_LAT CMA_LON CMA_CAT CMA_WIND CMA_PRES HKO_LAT HKO_LON HKO_CAT HKO_WIND HKO_PRES NEWDELHI_LAT NEWDELHI_LON NEWDELHI_GRADE NEWDELHI_WIND NEWDELHI_PRES NEWDELHI_CI NEWDELHI_DP NEWDELHI_POCI REUNION_LAT REUNION_LON REUNION_TYPE REUNION_WIND REUNION_PRES REUNION_TNUM REUNION_CI REUNION_RMW REUNION_R34_NE REUNION_R34_SE REUNION_R34_SW REUNION_R34_NW REUNION_R50_NE REUNION_R50_SE REUNION_R50_SW REUNION_R50_NW REUNION_R64_NE REUNION_R64_SE REUNION_R64_SW REUNION_R64_NW BOM_LAT BOM_LON BOM_TYPE BOM_WIND BOM_PRES BOM_TNUM BOM_CI BOM_RMW BOM_R34_NE BOM_R34_SE BOM_R34_SW BOM_R34_NW BOM_R50_NE BOM_R50_SE BOM_R50_SW BOM_R50_NW BOM_R64_NE BOM_R64_SE BOM_R64_SW BOM_R64_NW BOM_ROCI BOM_POCI BOM_EYE BOM_POS_METHOD BOM_PRES_METHOD NADI_LAT NADI_LON NADI_CAT NADI_WIND NADI_PRES WELLINGTON_LAT WELLINGTON_LON WELLINGTON_WIND WELLINGTON_PRES DS824_LAT DS824_LON DS824_STAGE DS824_WIND DS824_PRES TD9636_LAT TD9636_LON TD9636_STAGE TD9636_WIND TD9636_PRES TD9635_LAT TD9635_LON TD9635_WIND TD9635_PRES TD9635_ROCI NEUMANN_LAT NEUMANN_LON NEUMANN_CLASS NEUMANN_WIND NEUMANN_PRES MLC_LAT MLC_LON MLC_CLASS MLC_WIND MLC_PRES USA_GUST BOM_GUST BOM_GUST_PER REUNION_GUST REUNION_GUST_PER USA_SEAHGT USA_SEARAD_NE USA_SEARAD_SE USA_SEARAD_SW USA_SEARAD_NW STORM_SPEED STORM_DIR
1920042S20168 1920 6 SP MM NOT_NAMED 1920-02-10 23:00:00 NR -19.5000 167.500 main 266 251 __________O___ -1 -19.5000 167.500 7 7 219
1920042S20168 1920 6 SP MM NOT_NAMED 1920-02-11 00:00:00 TS -19.5819 167.422 main 251 221 _________OP___ -1 -19.6000 167.400 TC 45 990 -19.5729 167.432 7 6 219
1920042S20168 1920 6 SP MM NOT_NAMED 1920-02-11 03:00:00 TS -19.8156 167.229 main 221 192 _________PP___ -1 -19.8506 167.227 TC -19.7923 167.230 7 6 217
1920042S20168 1920 6 SP MM NOT_NAMED 1920-02-11 06:00:00 TS -20.0518 167.039 main 182 157 _________PP___ -1 -20.1010 167.053 TC -20.0149 167.029 7 6 216
1920042S20168 1920 6 SP MM NOT_NAMED 1920-02-11 09:00:00 TS -20.2973 166.855 main 157 137 _________PP___ -1 -20.3513 166.879 TC -20.2433 166.830 7 6 215
1920042S20168 1920 6 SP MM NOT_NAMED 1920-02-11 11:00:00 TS -20.4590 166.731 main 127 127 _________PO___ -1 -20.5181 166.763 TC -20.4000 166.700 7 6 215
1920042S20168 1920 6 SP MM NOT_NAMED 1920-02-11 12:00:00 TS -20.5407 166.670 main 127 88 _________PP___ -1 -20.6014 166.705 TC -20.4800 166.636 7 6 214
1920042S20168 1920 6 SP MM NOT_NAMED 1920-02-11 15:00:00 TS -20.7903 166.488 main 88 59 _________PP___ -1 -20.8514 166.529 TC -20.7291 166.448 7 6 213
1920042S20168 1920 6 SP MM NOT_NAMED 1920-02-11 18:00:00 TS -21.0488 166.311 main 59 22 _________PP___ -1 -21.1012 166.353 TC -20.9965 166.269 7 6 212
1920042S20168 1920 6 SP MM NOT_NAMED 1920-02-11 21:00:00 TS -21.3196 166.140 main 22 0 _________PP___ -1 -21.3507 166.177 TC -21.2886 166.102 7 6 210
1920042S20168 1920 6 SP MM NOT_NAMED 1920-02-11 23:00:00 TS -21.5085 166.030 main 0 0 _________PO___ -1 -21.5169 166.059 TC -21.5000 166.000 7 7 208
1920042S20168 1920 6 SP MM NOT_NAMED 1920-02-12 00:00:00 TS -21.6058 165.973 main 0 0 _________OP___ -1 -21.6000 166.000 TC 70 970 -21.6116 165.946 7 8 198
1920042S20168 1920 6 SP MM NOT_NAMED 1920-02-12 03:00:00 TS -21.9842 165.865 main 10 10 _________PP___ -1 -22.0000 165.939 TC -21.9684 165.791 7 8 194
1920042S20168 1920 6 SP MM NOT_NAMED 1920-02-12 06:00:00 TS -22.3743 165.766 main 45 45 _________PP___ -1 -22.4001 165.877 TC -22.3485 165.656 7 8 192
1920042S20168 1920 6 SP MM NOT_NAMED 1920-02-12 09:00:00 TS -22.7699 165.683 main 88 88 _________PP___ -1 -22.8002 165.815 TC -22.7395 165.550 7 8 190
1920042S20168 1920 6 SP MM NOT_NAMED 1920-02-12 11:00:00 TS -23.0335 165.637 main 112 112 _________PO___ -1 -23.0669 165.774 TC -23.0000 165.500 7 8 187
1920042S20168 1920 6 SP MM NOT_NAMED 1920-02-12 12:00:00 TS -23.1504 165.616 main 129 129 _________PP___ -1 -23.2003 165.753 TC -23.1004 165.480 7 7 189
1920042S20168 1920 6 SP MM NOT_NAMED 1920-02-12 15:00:00 TS -23.4959 165.567 main 157 157 _________PP___ -1 -23.6004 165.690 TC -23.3914 165.444 7 7 186
1920042S20168 1920 6 SP MM NOT_NAMED 1920-02-12 18:00:00 TS -23.8581 165.535 main 201 201 _________PP___ -1 -24.0004 165.627 TC -23.7158 165.443 7 8 184
1920042S20168 1920 6 SP MM NOT_NAMED 1920-02-12 21:00:00 TS -24.2492 165.510 main 231 231 _________PP___ -1 -24.4003 165.564 TC -24.1359 165.470 7 8 181
1920042S20168 1920 6 SP MM NOT_NAMED 1920-02-12 23:00:00 TS -24.5556 165.507 main 272 272 _________PO___ -1 -24.6668 165.521 TC -24.5000 165.500 7 10 183
1920042S20168 1920 6 SP MM NOT_NAMED 1920-02-13 00:00:00 TS -24.7348 165.508 main 283 283 _________OP___ -1 -24.8000 165.500 TC 65 976 -24.7185 165.510 7 14 178
1920042S20168 1920 6 SP MM NOT_NAMED 1920-02-13 03:00:00 NR -25.4819 165.555 main 364 364 __________P___ -1 TC -25.4819 165.555 7 16 176
1920042S20168 1920 6 SP MM NOT_NAMED 1920-02-13 06:00:00 NR -26.3700 165.625 main 460 460 __________P___ -1 TC -26.3700 165.625 7 19 175
1920042S20168 1920 6 SP MM NOT_NAMED 1920-02-13 09:00:00 NR -27.3359 165.720 main 556 556 __________P___ -1 TC -27.3359 165.720 7 20 175
1920042S20168 1920 6 SP MM NOT_NAMED 1920-02-13 11:00:00 NR -28.0000 165.800 main 632 632 __________O___ -1 TC -28.0000 165.800 7 20 174
1920042S20168 1920 6 SP MM NOT_NAMED 1920-02-13 12:00:00 NR -28.3332 165.845 main 665 665 __________P___ -1 TC -28.3332 165.845 7 20 173
1920042S20168 1920 6 SP MM NOT_NAMED 1920-02-13 15:00:00 NR -29.3330 165.998 main 773 760 __________P___ -1 TC -29.3330 165.998 7 20 172
1920042S20168 1920 6 SP MM NOT_NAMED 1920-02-13 18:00:00 NR -30.3331 166.174 main 760 678 __________P___ -1 TC -30.3331 166.174 7 20 171
1920042S20168 1920 6 SP MM NOT_NAMED 1920-02-13 21:00:00 NR -31.3334 166.366 main 678 636 __________P___ -1 TC -31.3334 166.366 7 20 171
1920042S20168 1920 6 SP MM NOT_NAMED 1920-02-13 23:00:00 NR -32.0000 166.500 main 630 __________O___ -1 TC -32.0000 166.500 7 20 170

デジタル台風データ・検索

IBTrACS Databaseについて

本データベースは、米国NOAAが公開する1842年以降の世界の熱帯低気圧のベストトラックデータアーカイブInternational Best Track Archive for Climate Stewardship (IBTrACS)を、ウェブで閲覧しやすい形式に変換したものです。

最終更新日:2021-10-21